Time;durP1;ratioP1;P1;durP2;ratioP2;P2;SDS_P1;SDS_P2;PMS_P1;PMS_P2;Temp;Humidity;BMP_temperature;BMP_pressure;BME280_temperature;BME280_humidity;BME280_pressure;Samples;Min_cycle;Max_cycle;Signal;HPM_P1;HPM_P2
2024/04/19 00:00:35;;;;;;;1.23;1.13;;;1.40;99.90;;;;;;5356682;26;20454;-80
2024/04/19 00:03:02;;;;;;;0.85;0.85;;;1.40;99.90;;;;;;5327375;26;20238;-79
2024/04/19 00:05:29;;;;;;;1.33;1.30;;;1.30;99.90;;;;;;5350454;26;20348;-79
2024/04/19 00:07:56;;;;;;;2.08;1.92;;;1.20;99.90;;;;;;5354610;26;20222;-78
2024/04/19 00:10:24;;;;;;;1.23;1.15;;;1.30;99.90;;;;;;5356613;26;20272;-80
2024/04/19 00:12:51;;;;;;;1.73;1.58;;;1.40;99.90;;;;;;5356116;26;20388;-80
2024/04/19 00:15:18;;;;;;;2.30;2.20;;;1.30;99.90;;;;;;5356630;26;20223;-80
2024/04/19 00:17:45;;;;;;;1.25;1.25;;;1.30;99.90;;;;;;5356806;26;20315;-81
2024/04/19 00:20:12;;;;;;;2.25;1.65;;;1.30;99.90;;;;;;5313934;26;20257;-79
2024/04/19 00:22:39;;;;;;;0.80;0.80;;;1.30;99.90;;;;;;5337286;26;20218;-79
2024/04/19 00:25:06;;;;;;;1.55;1.45;;;1.10;99.90;;;;;;5358757;26;20218;-79
2024/04/19 00:27:33;;;;;;;1.35;1.33;;;0.90;99.90;;;;;;5356765;26;20221;-79
2024/04/19 00:30:00;;;;;;;1.83;1.73;;;1.00;99.90;;;;;;5356813;26;20546;-79
2024/04/19 00:32:27;;;;;;;1.63;1.63;;;0.90;99.90;;;;;;5359071;26;20260;-78
2024/04/19 00:34:54;;;;;;;1.05;1.05;;;0.90;99.90;;;;;;5360227;26;20237;-82
2024/04/19 00:37:21;;;;;;;1.83;1.73;;;1.00;99.90;;;;;;5360819;26;20272;-82
2024/04/19 00:39:48;;;;;;;1.73;1.63;;;0.90;99.90;;;;;;5356770;26;20222;-79
2024/04/19 00:42:15;;;;;;;9.40;2.95;;;1.00;99.90;;;;;;5347712;26;20281;-80
2024/04/19 00:44:43;;;;;;;1.67;1.58;;;1.00;99.90;;;;;;5356001;26;20217;-80
2024/04/19 00:47:12;;;;;;;2.55;2.35;;;1.00;99.90;;;;;;5360936;26;20230;-77
2024/04/19 00:49:39;;;;;;;1.80;1.38;;;1.00;99.90;;;;;;5360049;26;20221;-79
2024/04/19 00:52:07;;;;;;;0.80;0.80;;;0.90;99.90;;;;;;5324196;27;20221;-77
2024/04/19 00:54:36;;;;;;;0.73;0.73;;;1.00;99.90;;;;;;5352616;26;20513;-78
2024/04/19 00:57:03;;;;;;;1.08;1.08;;;1.00;99.90;;;;;;5359599;26;20238;-82
2024/04/19 00:59:30;;;;;;;0.88;0.88;;;1.00;99.90;;;;;;5359023;26;20299;-81
2024/04/19 01:01:58;;;;;;;3.67;2.90;;;0.90;99.90;;;;;;5359909;26;20277;-79
2024/04/19 01:04:25;;;;;;;1.17;1.17;;;1.00;99.90;;;;;;5360700;26;20257;-78
2024/04/19 01:06:52;;;;;;;0.90;0.90;;;1.00;99.90;;;;;;5358911;26;20286;-78
2024/04/19 01:09:19;;;;;;;2.95;1.83;;;0.90;99.90;;;;;;5349637;26;20217;-80
2024/04/19 01:11:46;;;;;;;1.52;1.48;;;0.90;99.90;;;;;;5359837;26;20304;-78
2024/04/19 01:14:13;;;;;;;3.35;3.15;;;0.80;99.90;;;;;;5361533;26;20222;-79
2024/04/19 01:16:40;;;;;;;2.97;2.78;;;0.80;99.90;;;;;;5330309;26;20224;-79
2024/04/19 01:19:10;;;;;;;2.78;2.35;;;0.80;99.90;;;;;;5349291;26;20264;-78
2024/04/19 01:21:37;;;;;;;1.95;1.85;;;0.80;99.90;;;;;;5359271;26;20471;-79
2024/04/19 01:24:14;;;;;;;1.90;1.80;;;1.00;99.90;;;;;;5353244;26;20221;-77
2024/04/19 01:26:41;;;;;;;1.92;1.83;;;0.80;99.90;;;;;;5358102;26;20272;-77
2024/04/19 01:29:08;;;;;;;1.20;1.10;;;0.90;99.90;;;;;;5359033;26;20264;-79
2024/04/19 01:31:36;;;;;;;0.63;0.63;;;0.90;99.90;;;;;;5359230;26;20560;-75
2024/04/19 01:34:03;;;;;;;2.22;2.03;;;0.90;99.90;;;;;;5358690;26;20225;-77
2024/04/19 01:36:30;;;;;;;2.13;1.45;;;1.00;99.90;;;;;;5358504;26;20268;-81
2024/04/19 01:38:57;;;;;;;3.45;3.05;;;1.20;99.90;;;;;;5362709;26;20293;-81
2024/04/19 01:41:24;;;;;;;1.10;1.10;;;1.20;99.90;;;;;;5326321;26;20264;-79
2024/04/19 01:43:51;;;;;;;2.95;2.58;;;1.20;99.90;;;;;;5365242;26;20369;-82
2024/04/19 01:46:18;;;;;;;5.70;1.73;;;1.20;99.90;;;;;;5363699;26;20230;-79
2024/04/19 01:48:45;;;;;;;2.05;1.98;;;1.30;99.90;;;;;;5359365;26;20290;-78
2024/04/19 01:51:12;;;;;;;1.40;1.33;;;1.30;99.90;;;;;;5359042;26;20553;-80
2024/04/19 01:53:39;;;;;;;0.50;0.50;;;1.20;99.90;;;;;;5358695;26;20248;-78
2024/04/19 01:56:06;;;;;;;1.73;1.63;;;1.20;99.90;;;;;;5358862;26;20261;-79
2024/04/19 01:58:33;;;;;;;0.60;0.60;;;1.30;99.90;;;;;;5358548;26;20230;-78
2024/04/19 02:01:00;;;;;;;1.48;1.38;;;1.20;99.90;;;;;;5327614;26;20259;-79
2024/04/19 02:03:27;;;;;;;1.10;1.10;;;1.10;99.90;;;;;;5359823;26;20237;-79
2024/04/19 02:06:07;;;;;;;1.10;1.10;;;1.20;99.90;;;;;;5361245;26;20218;-82
2024/04/19 02:08:34;;;;;;;0.50;0.50;;;1.10;99.90;;;;;;5308379;26;20222;-82
2024/04/19 02:11:05;;;;;;;0.93;0.93;;;1.10;99.90;;;;;;5364915;26;20470;-82
2024/04/19 02:13:32;;;;;;;1.88;1.77;;;1.20;99.90;;;;;;5351871;26;20362;-78
2024/04/19 02:16:00;;;;;;;1.30;1.20;;;1.10;99.90;;;;;;5358847;26;20327;-81
2024/04/19 02:18:27;;;;;;;0.60;0.60;;;1.20;99.90;;;;;;5321451;27;20267;-81
2024/04/19 02:20:54;;;;;;;0.90;0.90;;;1.20;99.90;;;;;;5326418;26;20274;-83
2024/04/19 02:23:37;;;;;;;1.50;1.40;;;1.30;99.90;;;;;;5329020;26;20334;-81
2024/04/19 02:26:08;;;;;;;1.25;1.23;;;1.20;99.90;;;;;;5357641;26;20216;-80
2024/04/19 02:31:23;;;;;;;0.50;0.50;;;1.10;99.90;;;;;;5347571;26;20237;-82
2024/04/19 02:33:50;;;;;;;1.52;1.45;;;1.30;99.90;;;;;;5359281;26;20225;-82
2024/04/19 02:36:17;;;;;;;10.07;2.45;;;1.30;99.90;;;;;;5360361;26;20256;-82
2024/04/19 02:38:44;;;;;;;1.05;0.95;;;1.30;99.90;;;;;;5358241;26;20272;-82
2024/04/19 02:41:11;;;;;;;0.50;0.50;;;1.50;99.90;;;;;;5358291;26;20268;-81
2024/04/19 02:43:38;;;;;;;1.02;1.02;;;1.60;99.90;;;;;;5356019;26;20658;-83
2024/04/19 02:46:05;;;;;;;1.25;1.15;;;1.60;99.90;;;;;;5358406;26;20269;-84
2024/04/19 02:48:33;;;;;;;1.05;1.05;;;1.70;99.90;;;;;;5317763;26;20235;-84
2024/04/19 02:51:04;;;;;;;0.68;0.68;;;1.70;99.90;;;;;;5359512;26;20265;-84
2024/04/19 02:53:32;;;;;;;2.78;1.50;;;1.80;99.90;;;;;;5314957;27;20216;-85
2024/04/19 02:56:01;;;;;;;1.23;1.13;;;1.90;99.90;;;;;;5327691;26;20415;-85
2024/04/19 02:58:29;;;;;;;1.23;1.23;;;2.00;99.90;;;;;;5359198;26;20308;-84
2024/04/19 03:00:56;;;;;;;1.73;1.10;;;2.10;99.90;;;;;;5314390;26;20218;-85
2024/04/19 03:03:23;;;;;;;0.85;0.85;;;2.00;99.90;;;;;;5359154;26;20237;-84
2024/04/19 03:05:54;;;;;;;1.13;1.13;;;2.10;99.90;;;;;;5318561;26;20265;-86
2024/04/19 03:08:22;;;;;;;1.77;1.65;;;2.00;99.90;;;;;;5358890;26;20257;-84
2024/04/19 03:10:49;;;;;;;0.80;0.80;;;2.10;99.90;;;;;;5330425;26;20227;-88
2024/04/19 03:13:17;;;;;;;0.80;0.80;;;2.10;99.90;;;;;;5326216;26;20265;-86
2024/04/19 03:15:44;;;;;;;1.30;1.30;;;2.20;99.90;;;;;;5323714;27;20239;-86
2024/04/19 03:18:12;;;;;;;2.70;2.60;;;2.10;99.90;;;;;;5356157;26;20218;-85
2024/04/19 03:20:39;;;;;;;1.60;1.50;;;2.10;99.90;;;;;;5358115;26;20297;-85
2024/04/19 03:23:06;;;;;;;1.45;1.33;;;2.00;99.90;;;;;;5358568;26;20278;-83
2024/04/19 03:25:35;;;;;;;0.63;0.63;;;2.10;99.90;;;;;;5325653;26;20219;-86
2024/04/19 03:28:02;;;;;;;1.38;1.27;;;2.10;99.90;;;;;;5351208;26;20218;-86
2024/04/19 03:30:33;;;;;;;0.93;0.93;;;2.10;99.90;;;;;;5350743;26;20328;-83
2024/04/19 03:33:00;;;;;;;1.50;1.30;;;2.10;99.90;;;;;;5358320;26;20359;-85
2024/04/19 03:35:28;;;;;;;0.60;0.60;;;2.10;99.90;;;;;;5366916;26;20265;-85
2024/04/19 03:37:55;;;;;;;0.70;0.70;;;2.20;99.90;;;;;;5370111;26;20227;-85
2024/04/19 03:40:22;;;;;;;0.77;0.77;;;2.40;99.90;;;;;;5364992;26;20273;-83
2024/04/19 03:42:54;;;;;;;0.50;0.50;;;2.50;99.90;;;;;;5357946;26;20222;-83
2024/04/19 03:48:08;;;;;;;0.80;0.80;;;2.70;99.90;;;;;;5345364;26;20221;-85
2024/04/19 03:50:35;;;;;;;1.25;1.25;;;2.80;99.90;;;;;;5327599;26;20270;-85
2024/04/19 03:53:03;;;;;;;1.08;1.08;;;2.90;99.90;;;;;;5346203;26;20231;-82
2024/04/19 03:55:30;;;;;;;1.02;1.02;;;3.00;99.90;;;;;;5368289;26;20249;-83
2024/04/19 03:57:57;;;;;;;0.80;0.80;;;3.00;99.90;;;;;;5340634;26;20279;-83
2024/04/19 04:00:25;;;;;;;0.98;0.98;;;3.00;99.90;;;;;;5370053;26;20276;-84
2024/04/19 04:02:53;;;;;;;1.98;1.85;;;3.00;99.90;;;;;;5357005;26;20287;-84
2024/04/19 04:05:21;;;;;;;1.08;1.08;;;3.00;99.90;;;;;;5359722;26;20258;-82
2024/04/19 04:07:48;;;;;;;0.80;0.80;;;3.10;99.90;;;;;;5314011;26;20220;-83
2024/04/19 04:10:15;;;;;;;1.73;1.65;;;3.20;99.90;;;;;;5360102;26;20234;-83
2024/04/19 04:12:43;;;;;;;1.98;1.40;;;3.30;99.90;;;;;;5359631;26;20215;-81
2024/04/19 04:15:10;;;;;;;1.00;1.00;;;3.30;99.90;;;;;;5316306;26;20254;-82
2024/04/19 04:17:37;;;;;;;1.48;1.38;;;3.30;99.90;;;;;;5359435;26;20222;-81
2024/04/19 04:20:05;;;;;;;0.63;0.63;;;3.50;99.90;;;;;;5360012;26;20239;-83
2024/04/19 04:22:32;;;;;;;0.70;0.70;;;3.40;99.90;;;;;;5361134;26;20223;-81
2024/04/19 04:24:59;;;;;;;3.13;1.52;;;3.50;99.90;;;;;;5325420;26;20349;-81
2024/04/19 04:27:26;;;;;;;0.80;0.80;;;3.50;99.90;;;;;;5359352;26;20218;-82
2024/04/19 04:29:54;;;;;;;1.50;1.45;;;3.50;99.90;;;;;;5359004;26;20239;-82
2024/04/19 04:32:22;;;;;;;0.80;0.80;;;3.60;99.90;;;;;;5359555;26;20219;-81
2024/04/19 04:34:50;;;;;;;2.30;1.23;;;3.70;99.90;;;;;;5359834;26;20545;-81
2024/04/19 04:37:17;;;;;;;2.78;0.82;;;3.70;99.90;;;;;;5359944;26;20592;-78
2024/04/19 04:39:45;;;;;;;1.45;1.33;;;3.90;99.90;;;;;;5357413;26;20265;-80
2024/04/19 04:42:12;;;;;;;0.90;0.90;;;3.90;99.90;;;;;;5351164;26;20309;-80
2024/04/19 04:44:40;;;;;;;3.15;2.28;;;4.00;99.90;;;;;;5359465;26;20338;-79
2024/04/19 04:47:08;;;;;;;1.77;1.67;;;4.00;99.90;;;;;;5358241;26;20271;-81
2024/04/19 04:49:35;;;;;;;0.90;0.90;;;4.00;99.90;;;;;;5360323;26;20231;-87
2024/04/19 04:52:02;;;;;;;3.00;1.65;;;4.00;99.90;;;;;;5354691;26;20289;-81
2024/04/19 04:54:29;;;;;;;1.88;1.40;;;4.00;99.90;;;;;;5329548;26;20271;-83
2024/04/19 04:56:56;;;;;;;3.08;2.80;;;4.10;99.90;;;;;;5361639;26;20215;-79
2024/04/19 04:59:23;;;;;;;0.90;0.90;;;4.10;99.90;;;;;;5360364;26;20219;-79
2024/04/19 05:01:50;;;;;;;1.05;1.05;;;4.20;99.90;;;;;;5358836;26;20254;-80
2024/04/19 05:04:17;;;;;;;0.90;0.90;;;4.20;99.90;;;;;;5358864;26;20215;-79
2024/04/19 05:06:45;;;;;;;1.58;1.15;;;4.30;99.90;;;;;;5324524;26;20299;-82
2024/04/19 05:09:12;;;;;;;0.90;0.90;;;4.30;99.90;;;;;;5356968;26;20216;-82
2024/04/19 05:11:39;;;;;;;0.60;0.60;;;4.40;99.90;;;;;;5357581;26;20211;-82
2024/04/19 05:14:06;;;;;;;1.02;0.80;;;4.40;99.90;;;;;;5358189;26;21342;-79
2024/04/19 05:16:33;;;;;;;1.17;1.17;;;4.40;99.90;;;;;;5301237;26;20316;-80
2024/04/19 05:19:00;;;;;;;0.70;0.70;;;4.60;99.90;;;;;;5357720;26;20253;-80
2024/04/19 05:21:27;;;;;;;1.23;1.23;;;4.60;99.90;;;;;;5359912;26;20219;-79
2024/04/19 05:23:54;;;;;;;1.70;1.60;;;4.80;99.90;;;;;;5327761;26;20215;-79
2024/04/19 05:26:21;;;;;;;2.65;2.15;;;4.70;99.90;;;;;;5359387;26;20328;-78
2024/04/19 05:28:48;;;;;;;0.70;0.70;;;4.80;99.90;;;;;;5358490;26;20219;-80
2024/04/19 05:31:15;;;;;;;0.70;0.70;;;4.90;99.90;;;;;;5359284;26;20281;-79
2024/04/19 05:33:44;;;;;;;1.17;1.17;;;5.10;99.90;;;;;;5329236;26;20287;-79
2024/04/19 05:36:11;;;;;;;1.55;1.50;;;5.20;99.90;;;;;;5329372;26;20476;-81
2024/04/19 05:38:38;;;;;;;0.85;0.85;;;5.40;99.90;;;;;;5358403;26;20215;-80
2024/04/19 05:41:05;;;;;;;3.72;2.05;;;5.50;99.90;;;;;;5359044;26;20457;-80
2024/04/19 05:43:32;;;;;;;1.30;1.23;;;5.90;99.90;;;;;;5359776;26;20279;-80
2024/04/19 05:46:00;;;;;;;0.90;0.90;;;6.00;99.90;;;;;;5331635;26;20436;-80
2024/04/19 05:48:27;;;;;;;1.58;1.48;;;6.10;99.90;;;;;;5344962;26;20284;-77
2024/04/19 05:50:54;;;;;;;0.70;0.70;;;6.50;99.90;;;;;;5358033;26;20263;-81
2024/04/19 05:53:23;;;;;;;0.70;0.70;;;7.20;99.90;;;;;;5327481;26;20220;-79
2024/04/19 05:55:49;;;;;;;0.50;0.50;;;7.50;99.90;;;;;;5323722;26;21127;-78
2024/04/19 05:58:17;;;;;;;2.33;2.22;;;7.70;99.90;;;;;;5357786;26;20214;-80
2024/04/19 06:00:44;;;;;;;1.35;1.35;;;7.80;99.90;;;;;;5358096;26;20260;-79
2024/04/19 06:03:11;;;;;;;1.25;1.25;;;8.00;99.90;;;;;;5358600;26;20260;-80
2024/04/19 06:05:38;;;;;;;0.70;0.70;;;8.10;99.90;;;;;;5322696;27;20279;-81
2024/04/19 06:08:07;;;;;;;1.08;1.08;;;8.10;99.90;;;;;;5327707;26;20218;-80
2024/04/19 06:10:35;;;;;;;0.60;0.60;;;8.50;99.90;;;;;;5358835;26;20295;-83
2024/04/19 06:13:02;;;;;;;0.60;0.60;;;8.80;99.90;;;;;;5330800;26;20361;-80
2024/04/19 06:15:29;;;;;;;0.73;0.73;;;9.20;99.90;;;;;;5328298;26;20263;-79
2024/04/19 06:17:56;;;;;;;0.90;0.90;;;9.70;99.90;;;;;;5327479;26;20484;-85
2024/04/19 06:20:24;;;;;;;0.70;0.70;;;9.80;99.90;;;;;;5357657;26;20242;-79
2024/04/19 06:22:51;;;;;;;1.08;1.08;;;10.00;99.90;;;;;;5358846;26;20219;-82
2024/04/19 06:25:18;;;;;;;0.65;0.65;;;9.50;99.90;;;;;;5360630;26;20329;-80
2024/04/19 06:27:46;;;;;;;0.77;0.77;;;8.80;99.90;;;;;;5350246;26;20294;-80
2024/04/19 06:30:14;;;;;;;1.48;1.38;;;8.40;99.90;;;;;;5345683;26;20324;-79
2024/04/19 06:32:41;;;;;;;1.02;1.02;;;8.30;99.90;;;;;;5329026;26;20216;-80
2024/04/19 06:35:08;;;;;;;0.90;0.90;;;8.20;99.90;;;;;;5363120;26;22466;-80
2024/04/19 06:37:35;;;;;;;0.70;0.70;;;8.30;99.90;;;;;;5322824;27;20213;-78
2024/04/19 06:40:02;;;;;;;1.02;1.02;;;8.20;99.90;;;;;;5362960;26;20284;-79
2024/04/19 06:42:34;;;;;;;0.63;0.63;;;8.20;99.90;;;;;;5359479;26;20251;-78
2024/04/19 06:45:01;;;;;;;1.40;1.38;;;8.30;99.90;;;;;;5358081;26;20269;-80
2024/04/19 06:47:31;;;;;;;1.00;1.00;;;8.40;99.90;;;;;;5357561;26;20257;-78
2024/04/19 06:49:59;;;;;;;0.80;0.80;;;8.70;99.90;;;;;;5357574;26;20475;-80
2024/04/19 06:52:26;;;;;;;0.75;0.75;;;9.00;99.90;;;;;;5330189;26;20214;-79
2024/04/19 06:54:53;;;;;;;0.70;0.70;;;8.90;99.90;;;;;;5351739;26;20279;-80
2024/04/19 06:57:20;;;;;;;0.95;0.95;;;9.40;99.90;;;;;;5329224;26;20300;-79
2024/04/19 06:59:47;;;;;;;1.55;1.15;;;9.40;99.90;;;;;;5327670;26;20262;-78
2024/04/19 07:02:14;;;;;;;1.35;1.35;;;9.40;99.90;;;;;;5353391;26;20231;-79
2024/04/19 07:04:41;;;;;;;0.50;0.50;;;9.30;99.90;;;;;;5359671;26;20234;-82
2024/04/19 07:07:08;;;;;;;1.50;1.25;;;9.20;99.90;;;;;;5357991;26;20219;-78
2024/04/19 07:09:36;;;;;;;0.70;0.70;;;9.10;99.90;;;;;;5325014;26;20388;-80
2024/04/19 07:12:03;;;;;;;0.65;0.65;;;9.10;99.90;;;;;;5357652;26;20219;-77
2024/04/19 07:14:31;;;;;;;1.00;1.00;;;9.10;99.90;;;;;;5359389;26;20328;-81
2024/04/19 07:16:58;;;;;;;0.60;0.60;;;9.40;99.90;;;;;;5328611;26;20342;-79
2024/04/19 07:19:25;;;;;;;4.20;3.00;;;9.60;99.90;;;;;;5357965;26;20807;-79
2024/04/19 07:21:52;;;;;;;1.38;1.27;;;9.50;99.90;;;;;;5358712;26;20215;-80
2024/04/19 07:24:19;;;;;;;0.80;0.80;;;9.10;99.90;;;;;;5340271;26;20223;-79
2024/04/19 07:26:46;;;;;;;0.85;0.85;;;8.90;99.90;;;;;;5357362;26;20387;-80
2024/04/19 07:29:13;;;;;;;0.70;0.70;;;9.00;99.90;;;;;;5357592;26;20297;-77
2024/04/19 07:31:43;;;;;;;0.65;0.65;;;8.80;99.90;;;;;;5328841;26;20235;-78
2024/04/19 07:34:10;;;;;;;1.40;1.20;;;8.60;99.90;;;;;;5357955;26;20265;-79
2024/04/19 07:36:37;;;;;;;0.80;0.80;;;8.50;99.90;;;;;;5358036;26;20262;-82
2024/04/19 07:39:04;;;;;;;1.30;1.30;;;8.40;99.90;;;;;;5344384;26;20223;-85
2024/04/19 07:41:31;;;;;;;0.70;0.70;;;8.20;99.90;;;;;;5294874;26;20215;-78
2024/04/19 07:44:02;;;;;;;2.85;2.67;;;8.30;99.90;;;;;;5361646;26;20287;-79
2024/04/19 07:46:29;;;;;;;0.50;0.50;;;8.40;99.90;;;;;;5331861;26;20253;-80
2024/04/19 07:48:56;;;;;;;2.65;1.02;;;8.50;99.90;;;;;;5326885;26;20279;-81
2024/04/19 07:51:23;;;;;;;0.70;0.70;;;8.70;99.90;;;;;;5328522;26;20246;-80
2024/04/19 07:53:52;;;;;;;0.60;0.60;;;8.80;99.90;;;;;;5358120;26;20234;-85
2024/04/19 07:56:19;;;;;;;0.70;0.70;;;9.10;99.90;;;;;;5357717;26;20223;-79
2024/04/19 07:58:46;;;;;;;0.60;0.60;;;9.40;99.90;;;;;;5358770;26;20218;-81
2024/04/19 08:01:13;;;;;;;1.42;1.42;;;9.40;99.90;;;;;;5326569;26;20218;-78
2024/04/19 08:03:41;;;;;;;0.80;0.80;;;9.60;99.90;;;;;;5313191;26;20266;-77
2024/04/19 08:06:09;;;;;;;0.70;0.70;;;9.70;99.90;;;;;;5355976;26;20303;-78
2024/04/19 08:08:35;;;;;;;0.75;0.75;;;10.20;99.90;;;;;;5356222;26;20227;-78
2024/04/19 08:11:03;;;;;;;0.90;0.90;;;10.60;99.90;;;;;;5326862;26;20308;-78
2024/04/19 08:13:30;;;;;;;0.90;0.90;;;10.70;99.90;;;;;;5356450;26;20216;-81
2024/04/19 08:15:58;;;;;;;1.25;1.25;;;10.90;99.90;;;;;;5331545;26;20283;-80
2024/04/19 08:18:25;;;;;;;0.82;0.82;;;11.40;99.90;;;;;;5356562;26;20318;-80
2024/04/19 08:20:52;;;;;;;0.90;0.90;;;12.20;99.90;;;;;;5356423;26;20219;-78
2024/04/19 08:23:20;;;;;;;0.70;0.70;;;13.40;99.90;;;;;;5328508;26;20257;-79
2024/04/19 08:25:47;;;;;;;2.63;2.40;;;13.70;97.20;;;;;;5356744;26;20494;-84
2024/04/19 08:28:14;;;;;;;1.00;1.00;;;14.00;97.20;;;;;;5358463;26;20502;-80
2024/04/19 08:30:41;;;;;;;1.20;1.20;;;14.20;90.50;;;;;;5358913;26;20757;-81
2024/04/19 08:33:08;;;;;;;1.17;1.17;;;14.20;96.30;;;;;;5358366;26;20442;-82
2024/04/19 08:35:36;;;;;;;1.13;1.13;;;14.00;92.40;;;;;;5302637;27;20464;-81
2024/04/19 08:38:03;;;;;;;1.33;1.33;;;13.50;88.90;;;;;;5353389;26;20513;-81
2024/04/19 08:40:31;;;;;;;0.97;0.97;;;13.40;92.90;;;;;;5358203;26;20442;-78
2024/04/19 08:42:58;;;;;;;1.07;1.07;;;12.90;95.50;;;;;;5327686;26;20438;-79
2024/04/19 08:45:26;;;;;;;1.53;1.53;;;13.00;99.90;;;;;;5356493;26;20520;-78
2024/04/19 08:47:55;;;;;;;1.87;1.77;;;12.40;99.90;;;;;;5356190;26;20556;-81
2024/04/19 08:50:22;;;;;;;1.10;1.10;;;12.10;99.90;;;;;;5357903;26;20485;-81
2024/04/19 08:52:51;;;;;;;1.20;1.20;;;12.60;99.90;;;;;;5354585;26;20509;-80
2024/04/19 08:55:40;;;;;;;0.73;0.73;;;13.40;99.90;;;;;;5355771;26;20547;-81
2024/04/19 08:58:09;;;;;;;0.80;0.80;;;13.60;90.00;;;;;;5366038;26;20501;-78
2024/04/19 09:00:36;;;;;;;0.90;0.90;;;14.20;89.50;;;;;;5368484;26;20546;-81
2024/04/19 09:03:04;;;;;;;0.90;0.90;;;14.50;84.40;;;;;;5336184;26;20457;-82
2024/04/19 09:05:31;;;;;;;1.23;1.23;;;14.10;84.60;;;;;;5336525;26;20501;-80
2024/04/19 09:07:59;;;;;;;1.47;1.37;;;13.90;85.80;;;;;;5338338;26;20426;-79
2024/04/19 09:10:27;;;;;;;1.47;1.47;;;14.30;84.00;;;;;;5361921;26;20702;-80
2024/04/19 09:12:54;;;;;;;0.90;0.90;;;13.90;91.40;;;;;;5354116;26;20507;-79
2024/04/19 09:15:23;;;;;;;1.00;1.00;;;13.70;83.00;;;;;;5360694;26;20501;-81
2024/04/19 09:17:50;;;;;;;2.10;2.00;;;13.40;84.10;;;;;;5315891;26;20445;-82
2024/04/19 09:20:18;;;;;;;0.90;0.90;;;13.40;86.10;;;;;;5311514;26;20505;-83
2024/04/19 09:22:45;;;;;;;1.00;1.00;;;13.80;85.20;;;;;;5330635;26;20498;-80
2024/04/19 09:25:16;;;;;;;1.00;1.00;;;14.00;81.80;;;;;;5359222;26;20454;-81
2024/04/19 09:27:43;;;;;;;1.00;1.00;;;13.40;80.80;;;;;;5359568;26;20517;-82
2024/04/19 09:30:11;;;;;;;0.90;0.90;;;13.30;82.30;;;;;;5358895;26;20508;-81
2024/04/19 09:32:39;;;;;;;1.93;1.83;;;13.70;83.00;;;;;;5361982;26;20499;-82
2024/04/19 09:35:06;;;;;;;0.70;0.70;;;14.00;79.70;;;;;;5360557;26;20426;-88
2024/04/19 09:37:33;;;;;;;1.07;1.07;;;14.00;81.60;;;;;;5331218;26;20437;-79
2024/04/19 09:40:00;;;;;;;0.90;0.90;;;14.10;80.70;;;;;;5346879;26;20559;-80
2024/04/19 09:42:30;;;;;;;2.70;2.07;;;14.50;80.40;;;;;;5324910;26;20498;-87
2024/04/19 09:45:01;;;;;;;6.70;3.00;;;14.10;81.00;;;;;;5361590;26;20495;-83
2024/04/19 09:47:33;;;;;;;0.80;0.80;;;13.90;79.20;;;;;;5332111;26;20454;-82
2024/04/19 09:50:02;;;;;;;1.53;1.43;;;13.60;81.50;;;;;;5360466;26;20541;-82
2024/04/19 09:52:31;;;;;;;0.83;0.83;;;13.50;81.10;;;;;;5331920;26;20490;-83
2024/04/19 09:55:08;;;;;;;1.53;1.43;;;13.80;83.20;;;;;;5323558;26;20446;-81
2024/04/19 09:57:35;;;;;;;1.87;1.77;;;13.70;79.50;;;;;;5350384;26;20505;-82
2024/04/19 10:00:03;;;;;;;1.57;1.50;;;13.40;79.00;;;;;;5361118;26;20453;-85
2024/04/19 10:02:33;;;;;;;1.70;1.53;;;12.70;81.10;;;;;;5306211;26;20432;-84
2024/04/19 10:05:04;;;;;;;1.07;1.07;;;12.20;86.20;;;;;;5358050;26;20551;-80
2024/04/19 10:07:32;;;;;;;1.93;1.83;;;12.60;84.70;;;;;;5355586;26;20781;-80
2024/04/19 10:10:02;;;;;;;0.70;0.70;;;12.60;86.70;;;;;;5330629;26;20459;-81
2024/04/19 10:12:34;;;;;;;1.30;1.30;;;12.50;87.90;;;;;;5356676;26;20502;-81
2024/04/19 10:15:09;;;;;;;1.23;1.23;;;13.00;84.80;;;;;;5367707;26;20502;-80
2024/04/19 10:17:36;;;;;;;2.70;2.60;;;13.50;82.80;;;;;;5363623;26;20501;-79
2024/04/19 10:20:03;;;;;;;1.80;1.70;;;13.80;78.70;;;;;;5360142;26;20449;-81
2024/04/19 10:22:31;;;;;;;1.17;1.17;;;14.00;78.80;;;;;;5330362;26;20514;-83
2024/04/19 10:25:02;;;;;;;0.80;0.80;;;13.80;78.10;;;;;;5319653;26;20495;-80
2024/04/19 10:27:29;;;;;;;0.87;0.87;;;13.60;79.80;;;;;;5347583;26;20446;-80
2024/04/19 10:29:58;;;;;;;2.87;2.10;;;13.50;78.40;;;;;;5359196;26;20509;-81
2024/04/19 10:32:26;;;;;;;3.13;1.93;;;13.20;81.10;;;;;;5360651;26;20441;-82
2024/04/19 10:34:53;;;;;;;0.87;0.87;;;12.90;80.20;;;;;;5360079;26;20495;-82
2024/04/19 10:37:20;;;;;;;0.80;0.80;;;12.70;77.80;;;;;;5361236;26;20783;-81
2024/04/19 10:39:47;;;;;;;0.80;0.80;;;12.10;80.00;;;;;;5332147;26;20445;-84
2024/04/19 10:42:18;;;;;;;2.73;2.13;;;12.00;80.00;;;;;;5330932;26;20444;-80
2024/04/19 10:44:48;;;;;;;1.00;1.00;;;11.90;80.40;;;;;;5330739;26;20531;-79
2024/04/19 10:47:16;;;;;;;2.70;1.90;;;11.90;81.60;;;;;;5358406;26;20501;-83
2024/04/19 10:49:44;;;;;;;0.70;0.70;;;11.70;81.50;;;;;;5358501;26;20281;-79
2024/04/19 10:52:11;;;;;;;0.70;0.70;;;11.70;85.30;;;;;;5359268;26;20307;-83
2024/04/19 10:54:38;;;;;;;0.70;0.70;;;11.50;85.50;;;;;;5360454;26;20225;-80
2024/04/19 10:57:05;;;;;;;1.00;1.00;;;11.30;97.00;;;;;;5331037;26;20236;-81
2024/04/19 10:59:32;;;;;;;0.70;0.70;;;11.20;99.90;;;;;;5351754;26;20255;-81
2024/04/19 11:02:01;;;;;;;0.80;0.80;;;11.10;99.90;;;;;;5330469;26;20400;-81
2024/04/19 11:04:29;;;;;;;0.80;0.80;;;11.20;99.90;;;;;;5313638;27;20221;-82
2024/04/19 11:06:58;;;;;;;2.15;2.00;;;11.60;99.60;;;;;;5325413;26;20294;-79
2024/04/19 11:09:25;;;;;;;1.85;1.67;;;12.00;98.30;;;;;;5300426;26;20333;-83
2024/04/19 11:11:55;;;;;;;1.38;1.35;;;12.30;94.90;;;;;;5358767;26;20255;-81
2024/04/19 11:14:23;;;;;;;2.63;1.90;;;12.50;95.30;;;;;;5358301;26;20264;-82
2024/04/19 11:16:50;;;;;;;0.60;0.60;;;12.80;90.40;;;;;;5358222;26;20310;-81
2024/04/19 11:19:17;;;;;;;0.80;0.80;;;13.00;85.40;;;;;;5358319;26;20260;-81
2024/04/19 11:21:45;;;;;;;0.80;0.80;;;13.10;83.50;;;;;;5358855;26;20446;-80
2024/04/19 11:24:13;;;;;;;0.90;0.90;;;13.60;81.80;;;;;;5315445;26;20454;-81
2024/04/19 11:26:41;;;;;;;1.37;1.37;;;13.40;79.50;;;;;;5359171;26;20490;-83
2024/04/19 11:29:10;;;;;;;1.20;1.20;;;13.60;79.70;;;;;;5365638;26;20485;-82
2024/04/19 11:31:39;;;;;;;1.10;1.10;;;13.80;76.40;;;;;;5361120;26;20458;-81
2024/04/19 11:34:06;;;;;;;0.60;0.60;;;14.10;75.00;;;;;;5362254;26;20470;-78
2024/04/19 11:36:37;;;;;;;0.70;0.70;;;14.00;73.60;;;;;;5360967;26;20438;-82
2024/04/19 11:39:05;;;;;;;3.17;3.07;;;13.80;73.30;;;;;;5359803;26;20710;-82
2024/04/19 11:41:33;;;;;;;0.97;0.97;;;13.70;74.10;;;;;;5354778;26;20449;-85
2024/04/19 11:44:02;;;;;;;0.70;0.70;;;13.90;74.30;;;;;;5328272;26;20485;-79
2024/04/19 11:46:29;;;;;;;1.67;1.60;;;14.30;71.90;;;;;;5358348;26;20450;-83
2024/04/19 11:48:58;;;;;;;0.97;0.97;;;14.40;73.20;;;;;;5330632;26;20497;-86
2024/04/19 11:51:26;;;;;;;1.13;1.10;;;14.40;72.80;;;;;;5330078;26;20587;-86
2024/04/19 11:53:53;;;;;;;0.70;0.70;;;14.00;71.40;;;;;;5323403;27;20595;-81
2024/04/19 11:56:20;;;;;;;0.90;0.90;;;13.90;70.00;;;;;;5330428;26;20441;-81
2024/04/19 11:58:52;;;;;;;0.83;0.83;;;13.80;71.00;;;;;;5360288;26;20616;-83
2024/04/19 12:01:19;;;;;;;0.80;0.80;;;13.50;72.00;;;;;;5331880;26;20489;-83
2024/04/19 12:03:47;;;;;;;0.80;0.80;;;13.40;71.70;;;;;;5363678;26;20442;-85
2024/04/19 12:06:17;;;;;;;1.23;1.23;;;13.60;73.70;;;;;;5332482;26;20457;-84
2024/04/19 12:08:44;;;;;;;1.63;1.50;;;13.30;72.60;;;;;;5358286;26;20516;-82
2024/04/19 12:11:11;;;;;;;0.90;0.90;;;13.40;73.10;;;;;;5355127;26;20414;-86
2024/04/19 12:13:38;;;;;;;0.70;0.70;;;13.30;74.10;;;;;;5355569;26;20546;-84
2024/04/19 12:16:09;;;;;;;1.00;1.00;;;13.30;75.00;;;;;;5356175;26;20501;-84
2024/04/19 12:18:39;;;;;;;0.77;0.77;;;13.40;74.40;;;;;;5359211;26;20779;-82
2024/04/19 12:21:06;;;;;;;0.70;0.70;;;13.80;74.20;;;;;;5358567;26;20745;-84
2024/04/19 12:23:34;;;;;;;0.70;0.70;;;14.00;75.70;;;;;;5357172;26;21955;-81
2024/04/19 12:26:02;;;;;;;0.80;0.80;;;13.90;73.00;;;;;;5328564;26;20417;-88
2024/04/19 12:28:29;;;;;;;0.80;0.80;;;14.20;74.50;;;;;;5341346;26;20630;-82
2024/04/19 12:30:57;;;;;;;0.77;0.77;;;14.30;73.20;;;;;;5352702;26;20450;-81
2024/04/19 12:33:24;;;;;;;0.70;0.70;;;13.80;74.00;;;;;;5358897;26;20426;-82
2024/04/19 12:35:53;;;;;;;1.13;1.03;;;14.00;75.50;;;;;;5321166;26;20443;-80
2024/04/19 12:38:23;;;;;;;0.70;0.70;;;13.70;75.10;;;;;;5360748;26;20452;-80
2024/04/19 12:40:51;;;;;;;0.90;0.90;;;13.40;75.80;;;;;;5361034;26;20501;-83
2024/04/19 12:43:18;;;;;;;1.10;1.10;;;13.50;75.10;;;;;;5331501;26;20587;-82
2024/04/19 12:45:47;;;;;;;0.60;0.60;;;13.70;75.40;;;;;;5360460;26;20444;-83
2024/04/19 12:48:14;;;;;;;1.27;1.27;;;14.40;75.10;;;;;;5356206;26;20433;-82
2024/04/19 12:50:41;;;;;;;0.70;0.70;;;14.10;74.20;;;;;;5361806;26;20434;-82
2024/04/19 12:53:08;;;;;;;0.70;0.70;;;13.70;75.10;;;;;;5361867;26;20501;-82
2024/04/19 12:55:35;;;;;;;2.00;1.90;;;13.40;75.10;;;;;;5337493;26;20443;-81
2024/04/19 12:58:03;;;;;;;0.80;0.80;;;13.50;78.40;;;;;;5362580;26;20507;-83
2024/04/19 13:00:30;;;;;;;1.00;1.00;;;13.80;76.80;;;;;;5325763;26;20445;-85